WMPA

Pulau Pangkor Airport

Pangkor Island, Malaysia
TAF WMPA 230500Z 2306/2406 VRB03KT 9999 FEW017CB TEMPO 2306/2310 4000 TSRA FEW016CB SCT020
Issued Valid From Valid To
Apr-23 @ 05:00 UTC
(4 hours ago)
Apr-23 @ 06:00 UTC
(3 hours ago)
Apr-24 @ 06:00 UTC
(in 21 hours)
Apr-23 @ 06:00 to Apr-24 @ 06:00
TAF WMPA 230500Z 2306/2406 VRB03KT 9999 FEW017CB
Wind Visibility Clouds
Variable at 3 knots 10,000+ meters
  • Few at 1,700' AGL
Temporary Apr-23 @ 06:00 to Apr-23 @ 10:00
TEMPO 2306/2310 4000 TSRA FEW016CB SCT020
Visibility Clouds Conditions
4,007 meters
  • Few at 1,600' AGL
  • Scattered at 2,000' AGL
  • Thunderstorm
  • Rain
TAF WMPA 230500Z 2306/2406 VRB03KT 9999 FEW017CB TEMPO 2306/2310 4000 TSRA FEW016CB SCT020
Issued Apr-23 @ 05:00 UTC
(4 hours ago)
Valid From Apr-23 @ 06:00 UTC
(3 hours ago)
Valid To Apr-24 @ 06:00 UTC
(in 21 hours)
Apr-23 @ 06:00 - Apr-24 @ 06:00
Wind Visibility
Variable at 3 knots 10,000+ meters
Clouds
  • Few at 1,700' AGL
Temporary Apr-23 @ 06:00 - Apr-23 @ 10:00
Clouds
  • Few at 1,600' AGL
  • Scattered at 2,000' AGL
Conditions
  • Thunderstorm
  • Rain